createdAt,value
2018-08-13T00:02:35.294Z,4.7
2018-08-13T00:05:35.229Z,4.7
2018-08-13T00:08:35.159Z,4.7
2018-08-13T00:11:35.380Z,4.7
2018-08-13T00:14:35.702Z,4.7
2018-08-13T00:17:36.134Z,4.7
2018-08-13T00:20:35.036Z,4.7
2018-08-13T00:23:35.216Z,4.7
2018-08-13T00:26:35.111Z,4.7
2018-08-13T00:29:35.116Z,4.7
2018-08-13T00:32:35.315Z,4.7
2018-08-13T00:35:35.394Z,4.7
2018-08-13T00:38:35.057Z,4.7
2018-08-13T00:41:35.380Z,4.7
2018-08-13T00:44:35.287Z,4.7
2018-08-13T00:47:35.109Z,4.7
2018-08-13T00:50:35.097Z,4.7
2018-08-13T00:53:35.126Z,4.7
2018-08-13T00:56:35.072Z,4.7
2018-08-13T00:59:35.328Z,4.7
2018-08-13T01:02:35.101Z,4.7
2018-08-13T01:05:35.234Z,4.7
2018-08-13T01:08:35.278Z,4.7
2018-08-13T01:11:35.267Z,4.7
2018-08-13T01:14:35.248Z,4.7
2018-08-13T01:17:35.394Z,4.7
2018-08-13T01:20:35.285Z,4.7
2018-08-13T01:23:35.177Z,4.7
2018-08-13T01:26:35.472Z,4.7
2018-08-13T01:29:35.348Z,4.7
2018-08-13T01:32:35.283Z,4.7
2018-08-13T01:35:35.396Z,4.7
2018-08-13T01:38:35.281Z,4.7
2018-08-13T01:41:35.068Z,4.7
2018-08-13T01:44:35.212Z,4.7
2018-08-13T01:47:35.363Z,4.7
2018-08-13T01:50:35.029Z,4.7
2018-08-13T01:53:35.292Z,4.7
2018-08-13T01:56:35.462Z,4.7
2018-08-13T01:59:35.044Z,4.7
2018-08-13T02:02:35.135Z,4.8
2018-08-13T02:05:35.350Z,4.8
2018-08-13T02:08:35.046Z,4.8
2018-08-13T02:11:35.102Z,4.8
2018-08-13T02:14:35.299Z,4.8
2018-08-13T02:17:35.044Z,4.8
2018-08-13T02:20:35.324Z,4.8
2018-08-13T02:23:35.212Z,4.8
2018-08-13T02:26:35.179Z,4.8
2018-08-13T02:29:35.167Z,4.8
2018-08-13T02:32:35.148Z,4.8
2018-08-13T02:35:35.154Z,4.8
2018-08-13T02:38:35.645Z,4.8
2018-08-13T02:41:35.306Z,4.8
2018-08-13T02:44:35.257Z,4.8
2018-08-13T02:47:35.364Z,4.8
2018-08-13T02:50:35.225Z,4.8
2018-08-13T02:53:35.471Z,4.8
2018-08-13T02:56:35.201Z,4.8
2018-08-13T02:59:35.248Z,4.8
2018-08-13T03:02:35.069Z,4.8
2018-08-13T03:05:35.126Z,4.8
2018-08-13T03:08:35.243Z,4.8
2018-08-13T03:11:35.086Z,4.8
2018-08-13T03:14:35.212Z,4.8
2018-08-13T03:17:35.157Z,4.8
2018-08-13T03:20:35.346Z,4.8
2018-08-13T03:23:35.213Z,4.8
2018-08-13T03:26:35.214Z,4.8
2018-08-13T03:29:35.245Z,4.8
2018-08-13T03:32:35.414Z,4.8
2018-08-13T03:35:35.451Z,4.8
2018-08-13T03:38:35.187Z,4.8
2018-08-13T03:41:35.121Z,4.8
2018-08-13T03:44:35.179Z,4.8
2018-08-13T03:47:35.161Z,4.8
2018-08-13T03:50:35.587Z,4.8
2018-08-13T03:53:35.310Z,4.8
2018-08-13T03:56:35.146Z,4.8
2018-08-13T03:59:35.274Z,4.8
2018-08-13T04:02:35.298Z,4.7
2018-08-13T04:05:35.237Z,4.7
2018-08-13T04:08:35.204Z,4.7
2018-08-13T04:11:35.359Z,4.7
2018-08-13T04:14:35.073Z,4.7
2018-08-13T04:17:35.241Z,4.7
2018-08-13T04:20:35.308Z,4.7
2018-08-13T04:23:35.200Z,4.7
2018-08-13T04:26:35.129Z,4.7
2018-08-13T04:29:35.214Z,4.7
2018-08-13T04:32:35.747Z,4.7
2018-08-13T04:35:35.274Z,4.7
2018-08-13T04:38:35.668Z,4.7
2018-08-13T04:41:35.291Z,4.7
2018-08-13T04:44:35.263Z,4.7
2018-08-13T04:47:35.128Z,4.7
2018-08-13T04:50:35.194Z,4.7
2018-08-13T04:53:35.221Z,4.7
2018-08-13T04:56:35.091Z,4.7
2018-08-13T04:59:35.271Z,4.7
2018-08-13T05:02:35.220Z,4.7
2018-08-13T05:05:35.286Z,4.7
2018-08-13T05:08:35.286Z,4.7
2018-08-13T05:11:35.217Z,4.7
2018-08-13T05:14:35.091Z,4.7
2018-08-13T05:17:35.275Z,4.7
2018-08-13T05:20:35.322Z,4.7
2018-08-13T05:23:35.174Z,4.7
2018-08-13T05:26:35.385Z,4.7
2018-08-13T05:29:35.234Z,4.7
2018-08-13T05:32:35.136Z,4.7
2018-08-13T05:35:35.538Z,4.7
2018-08-13T05:38:35.191Z,4.7
2018-08-13T05:41:35.098Z,4.7
2018-08-13T05:44:35.056Z,4.7
2018-08-13T05:47:35.252Z,4.7
2018-08-13T05:50:35.027Z,4.7
2018-08-13T05:53:35.115Z,4.7
2018-08-13T05:56:35.146Z,4.7
2018-08-13T05:59:35.090Z,4.7
2018-08-13T06:02:35.216Z,4.7
2018-08-13T06:05:35.238Z,4.7
2018-08-13T06:08:35.275Z,4.7
2018-08-13T06:11:36.020Z,4.7
2018-08-13T06:14:35.057Z,4.7
2018-08-13T06:17:35.179Z,4.7
2018-08-13T06:20:35.097Z,4.7
2018-08-13T06:23:35.240Z,4.7
2018-08-13T06:26:35.099Z,4.7
2018-08-13T06:29:35.199Z,4.7
2018-08-13T06:32:35.132Z,4.7
2018-08-13T06:35:35.149Z,4.7
2018-08-13T06:38:35.250Z,4.7
2018-08-13T06:41:35.272Z,4.7
2018-08-13T06:44:35.189Z,4.7
2018-08-13T06:47:35.294Z,4.7
2018-08-13T06:50:35.294Z,4.7
2018-08-13T06:53:35.071Z,4.7
2018-08-13T06:56:35.297Z,4.7
2018-08-13T06:59:35.357Z,4.7
2018-08-13T07:02:34.999Z,4.6
2018-08-13T07:05:35.258Z,4.6
2018-08-13T07:08:35.075Z,4.6
2018-08-13T07:11:34.980Z,4.6
2018-08-13T07:14:35.346Z,4.6
2018-08-13T07:17:35.241Z,4.6
2018-08-13T07:20:34.993Z,4.6
2018-08-13T07:23:35.290Z,4.6
2018-08-13T07:26:35.245Z,4.6
2018-08-13T07:29:35.021Z,4.6
2018-08-13T07:32:35.240Z,4.6
2018-08-13T07:35:35.103Z,4.6
2018-08-13T07:38:35.085Z,4.6
2018-08-13T07:41:35.225Z,4.6
2018-08-13T07:44:35.130Z,4.6
2018-08-13T07:47:35.062Z,4.6
2018-08-13T07:50:35.143Z,4.6
2018-08-13T07:53:35.108Z,4.6
2018-08-13T07:56:35.078Z,4.6
2018-08-13T07:59:35.286Z,4.6
2018-08-13T08:02:35.057Z,4.5
2018-08-13T08:05:35.078Z,4.5
2018-08-13T08:08:35.280Z,4.5
2018-08-13T08:11:38.085Z,4.5
2018-08-13T08:14:35.613Z,4.5
2018-08-13T08:17:35.372Z,4.5
2018-08-13T08:20:35.331Z,4.5
2018-08-13T08:23:34.995Z,4.5
2018-08-13T08:26:35.164Z,4.5
2018-08-13T08:29:35.088Z,4.5
2018-08-13T08:32:35.080Z,4.5
2018-08-13T08:35:35.058Z,4.5
2018-08-13T08:38:35.289Z,4.5
2018-08-13T08:41:35.213Z,4.5
2018-08-13T08:44:35.347Z,4.5
2018-08-13T08:47:35.315Z,4.5
2018-08-13T08:50:35.018Z,4.5
2018-08-13T08:53:35.970Z,4.5
2018-08-13T08:56:35.260Z,4.5
2018-08-13T08:59:35.101Z,4.5
2018-08-13T09:02:35.190Z,4.4
2018-08-13T09:05:35.319Z,4.4
2018-08-13T09:08:35.058Z,4.4
2018-08-13T09:11:35.210Z,4.4
2018-08-13T09:14:35.291Z,4.4
2018-08-13T09:17:35.071Z,4.4
2018-08-13T09:20:35.215Z,4.4
2018-08-13T09:23:35.173Z,4.4
2018-08-13T09:26:35.062Z,4.4
2018-08-13T09:29:35.172Z,4.4
2018-08-13T09:32:35.002Z,4.4
2018-08-13T09:35:35.341Z,4.4
2018-08-13T09:38:35.225Z,4.4
2018-08-13T09:41:35.106Z,4.4
2018-08-13T09:44:35.180Z,4.4
2018-08-13T09:47:35.344Z,4.4
2018-08-13T09:50:35.263Z,4.4
2018-08-13T09:53:35.210Z,4.4
2018-08-13T09:56:35.096Z,4.4
2018-08-13T09:59:35.175Z,4.4
2018-08-13T10:02:35.092Z,4.3
2018-08-13T10:05:35.035Z,4.3
2018-08-13T10:08:35.265Z,4.3
2018-08-13T10:11:35.006Z,4.3
2018-08-13T10:14:35.192Z,4.3
2018-08-13T10:17:36.198Z,4.3
2018-08-13T10:20:35.192Z,4.3
2018-08-13T10:23:35.273Z,4.3
2018-08-13T10:26:35.097Z,4.3
2018-08-13T10:29:35.145Z,4.3
2018-08-13T10:32:35.164Z,4.3
2018-08-13T10:35:36.072Z,4.3
2018-08-13T10:38:35.359Z,4.3
2018-08-13T10:41:35.292Z,4.3
2018-08-13T10:44:35.384Z,4.3
2018-08-13T10:47:35.153Z,4.3
2018-08-13T10:50:35.259Z,4.3
2018-08-13T10:53:35.039Z,4.3
2018-08-13T10:56:35.140Z,4.3
2018-08-13T10:59:35.112Z,4.3
2018-08-13T11:02:35.193Z,4.2
2018-08-13T11:05:35.227Z,4.2
2018-08-13T11:08:35.031Z,4.2
2018-08-13T11:11:35.196Z,4.2
2018-08-13T11:14:35.065Z,4.2
2018-08-13T11:17:34.935Z,4.2
2018-08-13T11:20:35.083Z,4.2
2018-08-13T11:23:35.170Z,4.2
2018-08-13T11:26:35.327Z,4.2
2018-08-13T11:29:35.123Z,4.2
2018-08-13T11:32:35.210Z,4.2
2018-08-13T11:35:35.263Z,4.2
2018-08-13T11:38:35.153Z,4.2
2018-08-13T11:41:35.214Z,4.2
2018-08-13T11:44:35.087Z,4.2
2018-08-13T11:47:35.428Z,4.2
2018-08-13T11:50:35.064Z,4.2
2018-08-13T11:53:35.596Z,4.2
2018-08-13T11:56:35.172Z,4.2
2018-08-13T11:59:35.181Z,4.2
2018-08-13T12:02:35.075Z,4.1
2018-08-13T12:05:35.125Z,4.1
2018-08-13T12:08:35.151Z,4.1
2018-08-13T12:11:35.188Z,4.1
2018-08-13T12:14:35.312Z,4.1
2018-08-13T12:17:35.325Z,4.1
2018-08-13T12:20:35.172Z,4.1
2018-08-13T12:23:34.907Z,4.1
2018-08-13T12:26:35.064Z,4.1
2018-08-13T12:29:35.182Z,4.1
2018-08-13T12:32:35.194Z,4.1
2018-08-13T12:35:35.098Z,4.1
2018-08-13T12:38:34.982Z,4.1
2018-08-13T12:41:35.213Z,4.1
2018-08-13T12:44:35.318Z,4.1
2018-08-13T12:47:35.073Z,4.1
2018-08-13T12:50:35.045Z,4.1
2018-08-13T12:53:35.044Z,4.1
2018-08-13T12:56:35.344Z,4.1
2018-08-13T12:59:35.046Z,4.1
2018-08-13T13:02:35.364Z,4
2018-08-13T13:05:35.056Z,4
2018-08-13T13:08:35.438Z,4
2018-08-13T13:11:34.977Z,4
2018-08-13T13:14:35.329Z,4
2018-08-13T13:17:35.034Z,4
2018-08-13T13:20:36.352Z,4
2018-08-13T13:23:35.098Z,4
2018-08-13T13:26:35.181Z,4
2018-08-13T13:29:35.099Z,4
2018-08-13T13:32:35.244Z,4
2018-08-13T13:35:35.172Z,4
2018-08-13T13:38:35.033Z,4
2018-08-13T13:41:35.062Z,4
2018-08-13T13:44:35.252Z,4
2018-08-13T13:47:35.059Z,4
2018-08-13T13:50:35.067Z,4
2018-08-13T13:53:35.147Z,4
2018-08-13T13:56:35.179Z,4
2018-08-13T13:59:35.097Z,4
2018-08-13T14:02:35.068Z,3.9
2018-08-13T14:05:35.248Z,3.9
2018-08-13T14:08:35.064Z,3.9
2018-08-13T14:11:34.965Z,3.9
2018-08-13T14:14:35.034Z,3.9
2018-08-13T14:17:36.178Z,3.9
2018-08-13T14:20:35.061Z,3.9
2018-08-13T14:23:35.058Z,3.9
2018-08-13T14:26:35.061Z,3.9
2018-08-13T14:29:35.068Z,3.9
2018-08-13T14:32:35.022Z,3.9
2018-08-13T14:35:35.035Z,3.9
2018-08-13T14:38:35.089Z,3.9
2018-08-13T14:41:35.247Z,3.9
2018-08-13T14:44:35.015Z,3.9
2018-08-13T14:47:35.170Z,3.9
2018-08-13T14:50:35.089Z,3.9
2018-08-13T14:53:35.110Z,3.9
2018-08-13T14:56:35.486Z,3.9
2018-08-13T14:59:35.201Z,3.9
2018-08-13T15:02:35.097Z,3.6
2018-08-13T15:05:36.026Z,3.6
2018-08-13T15:08:35.378Z,3.6
2018-08-13T15:11:34.933Z,3.6
2018-08-13T15:14:35.373Z,3.6
2018-08-13T15:17:35.076Z,3.6
2018-08-13T15:20:34.926Z,3.6
2018-08-13T15:23:35.047Z,3.6
2018-08-13T15:26:35.172Z,3.6
2018-08-13T15:29:34.960Z,3.6
2018-08-13T15:32:35.231Z,3.6
2018-08-13T15:35:34.952Z,3.6
2018-08-13T15:38:34.988Z,3.6
2018-08-13T15:41:35.106Z,3.6
2018-08-13T15:44:35.093Z,3.6
2018-08-13T15:47:35.048Z,3.6
2018-08-13T15:50:35.334Z,3.6
2018-08-13T15:53:35.323Z,3.6
2018-08-13T15:56:35.050Z,3.6
2018-08-13T15:59:34.898Z,3.6
2018-08-13T16:02:35.211Z,3.1
2018-08-13T16:05:35.379Z,3.1
2018-08-13T16:08:35.249Z,3.1
2018-08-13T16:11:35.015Z,3.1
2018-08-13T16:14:35.327Z,3.1
2018-08-13T16:17:35.076Z,3.1
2018-08-13T16:20:35.048Z,3.1
2018-08-13T16:23:34.938Z,3.1
2018-08-13T16:26:35.631Z,3.1
2018-08-13T16:29:35.250Z,3.1
2018-08-13T16:32:34.873Z,3.1
2018-08-13T16:35:34.928Z,3.1
2018-08-13T16:38:35.128Z,3.1
2018-08-13T16:41:35.012Z,3.1
2018-08-13T16:44:35.112Z,3.1
2018-08-13T16:47:35.157Z,3.1
2018-08-13T16:50:34.922Z,3.1
2018-08-13T16:53:35.041Z,3.1
2018-08-13T16:56:36.202Z,3.1
2018-08-13T16:59:35.323Z,3.1
2018-08-13T17:02:36.208Z,2.8
2018-08-13T17:05:35.210Z,2.8
2018-08-13T17:08:35.047Z,2.8
2018-08-13T17:11:35.145Z,2.8
2018-08-13T17:14:37.161Z,2.8
2018-08-13T17:17:35.050Z,2.8
2018-08-13T17:20:35.060Z,2.8
2018-08-13T17:23:35.324Z,2.8
2018-08-13T17:26:35.082Z,2.8
2018-08-13T17:29:34.924Z,2.8
2018-08-13T17:32:35.050Z,2.8
2018-08-13T17:35:35.049Z,2.8
2018-08-13T17:38:35.021Z,2.8
2018-08-13T17:41:34.976Z,2.8
2018-08-13T17:44:35.033Z,2.8
2018-08-13T17:47:34.955Z,2.8
2018-08-13T17:50:35.247Z,2.8
2018-08-13T17:53:34.915Z,2.8
2018-08-13T17:56:35.034Z,2.8
2018-08-13T17:59:35.073Z,2.8
2018-08-13T18:02:35.942Z,2.6
2018-08-13T18:05:35.088Z,2.6
2018-08-13T18:08:34.988Z,2.6
2018-08-13T18:11:35.017Z,2.6
2018-08-13T18:14:35.038Z,2.6
2018-08-13T18:17:35.046Z,2.6
2018-08-13T18:20:35.066Z,2.6
2018-08-13T18:23:35.044Z,2.6
2018-08-13T18:26:35.053Z,2.6
2018-08-13T18:29:34.881Z,2.6
2018-08-13T18:32:35.123Z,2.6
2018-08-13T18:35:35.171Z,2.6
2018-08-13T18:38:35.112Z,2.6
2018-08-13T18:41:34.962Z,2.6
2018-08-13T18:44:34.882Z,2.6
2018-08-13T18:47:35.251Z,2.6
2018-08-13T18:50:34.882Z,2.6
2018-08-13T18:53:35.770Z,2.6
2018-08-13T18:56:35.060Z,2.6
2018-08-13T18:59:35.244Z,2.6
2018-08-13T19:02:34.996Z,2.6
2018-08-13T19:05:34.936Z,2.6
2018-08-13T19:08:35.036Z,2.6
2018-08-13T19:11:35.030Z,2.6
2018-08-13T19:14:34.954Z,2.6
2018-08-13T19:17:34.977Z,2.6
2018-08-13T19:20:35.019Z,2.6
2018-08-13T19:23:34.984Z,2.6
2018-08-13T19:26:34.998Z,2.6
2018-08-13T19:29:34.992Z,2.6
2018-08-13T19:32:34.985Z,2.6
2018-08-13T19:35:34.997Z,2.6
2018-08-13T19:38:35.017Z,2.6
2018-08-13T19:41:34.987Z,2.6
2018-08-13T19:44:36.424Z,2.6
2018-08-13T19:47:35.159Z,2.6
2018-08-13T19:50:35.162Z,2.6
2018-08-13T19:53:35.062Z,2.6
2018-08-13T19:56:35.036Z,2.6
2018-08-13T19:59:35.302Z,2.6
2018-08-13T20:02:34.992Z,2.8
2018-08-13T20:05:35.023Z,2.8
2018-08-13T20:08:34.960Z,2.8
2018-08-13T20:11:35.219Z,2.8
2018-08-13T20:14:34.944Z,2.8
2018-08-13T20:17:35.059Z,2.8
2018-08-13T20:20:35.157Z,2.8
2018-08-13T20:23:35.016Z,2.8
2018-08-13T20:26:34.925Z,2.8
2018-08-13T20:29:35.024Z,2.8
2018-08-13T20:32:34.880Z,2.8
2018-08-13T20:35:35.176Z,2.8
2018-08-13T20:38:35.105Z,2.8
2018-08-13T20:41:34.967Z,2.8
2018-08-13T20:44:35.523Z,2.8
2018-08-13T20:47:34.915Z,2.8
2018-08-13T20:50:34.886Z,2.8
2018-08-13T20:53:35.056Z,2.8
2018-08-13T20:56:35.000Z,2.8
2018-08-13T20:59:34.943Z,2.8
2018-08-13T21:02:34.948Z,2.9
2018-08-13T21:05:35.040Z,2.9
2018-08-13T21:08:34.961Z,2.9
2018-08-13T21:11:35.002Z,2.9
2018-08-13T21:14:35.102Z,2.9
2018-08-13T21:17:34.959Z,2.9
2018-08-13T21:20:34.887Z,2.9
2018-08-13T21:23:35.066Z,2.9
2018-08-13T21:26:35.113Z,2.9
2018-08-13T21:29:34.924Z,2.9
2018-08-13T21:32:35.079Z,2.9
2018-08-13T21:35:34.887Z,2.9
2018-08-13T21:38:35.145Z,2.9
2018-08-13T21:41:34.918Z,2.9
2018-08-13T21:44:34.887Z,2.9
2018-08-13T21:47:34.971Z,2.9
2018-08-13T21:50:34.853Z,2.9
2018-08-13T21:53:34.853Z,2.9
2018-08-13T21:56:35.075Z,2.9
2018-08-13T21:59:35.211Z,2.9
2018-08-13T22:02:34.795Z,2.9
2018-08-13T22:05:34.930Z,2.9
2018-08-13T22:08:34.807Z,2.9
2018-08-13T22:11:34.850Z,2.9
2018-08-13T22:14:34.975Z,2.9
2018-08-13T22:17:34.963Z,2.9
2018-08-13T22:20:34.885Z,2.9
2018-08-13T22:23:34.845Z,2.9
2018-08-13T22:26:35.039Z,2.9
2018-08-13T22:29:34.915Z,2.9
2018-08-13T22:32:35.154Z,2.9
2018-08-13T22:35:35.066Z,2.9
2018-08-13T22:38:34.976Z,2.9
2018-08-13T22:41:34.964Z,2.9
2018-08-13T22:44:35.173Z,2.9
2018-08-13T22:47:34.920Z,2.9
2018-08-13T22:50:34.872Z,2.9
2018-08-13T22:53:34.951Z,2.9
2018-08-13T22:56:35.075Z,2.9
2018-08-13T22:59:34.978Z,2.9
2018-08-13T23:02:34.934Z,2.9
2018-08-13T23:05:35.008Z,2.9
2018-08-13T23:08:36.531Z,2.9
2018-08-13T23:11:34.902Z,2.9
2018-08-13T23:14:35.351Z,2.9
2018-08-13T23:17:34.878Z,2.9
2018-08-13T23:20:35.109Z,2.9
2018-08-13T23:23:35.164Z,2.9
2018-08-13T23:26:34.882Z,2.9
2018-08-13T23:29:34.967Z,2.9
2018-08-13T23:32:34.928Z,2.9
2018-08-13T23:35:35.060Z,2.9
2018-08-13T23:38:35.118Z,2.9
2018-08-13T23:41:34.927Z,2.9
2018-08-13T23:44:34.892Z,2.9
2018-08-13T23:47:34.891Z,2.9
2018-08-13T23:50:35.017Z,2.9
2018-08-13T23:53:34.904Z,2.9
2018-08-13T23:56:34.749Z,2.9
2018-08-13T23:59:34.852Z,2.9
